Bridgewater, VA

5:55 PM EDT on May 27, 2015 (GMT -0400)
Petersburg | | Change Station
CLOSE
Current Station
Airport
Location: Petersburg,
Elevation: 961 ft
Nearby Weather Stations

Elev 961 ft 38.99 °N, 79.15 °W | Updated 20 minutes ago

Partly Cloudy
Partly Cloudy
85 °F
Feels Like 84 °F
N
0
Wind Variable Wind from North

Today
High -- | Low -- °F
--% Chance of Precip.
Yesterday
High -- | Low -- °F
Precip. -- in
5:56 AM 8:30 PM
Waxing Gibbous, 70% visible
Pressure 30.12 in
Visibility 10.0 miles
Clouds Clear
Heat Index 84 °F
Dew Point 58 °F
Humidity 40%
Rainfall 0.04 in
Snow Depth Not available.
UV 4 out of 12
Pollen 2.10 out of 12
Air Quality Not available.
Flu Activity No Activity
METAR KW99 272135Z AUTO 00000KT 10SM CLR 30/14 A3012 RMK AO2 T02950144

More Conditions Fewer Conditions

Pressure 30.12 in
Visibility 10.0 miles
Clouds Clear
Heat Index 84 °F
Dew Point 58 °F
Humidity 40%
Rainfall 0.04 in
Snow Depth Not available.
UV 4 out of 12
Pollen 2.10 out of 12
Air Quality Not available.
Flu Activity No Activity
METAR KW99 272135Z AUTO 00000KT 10SM CLR 30/14 A3012 RMK AO2 T02950144

More Conditions Fewer Conditions

10-Day Weather Forecast

Almanac

Astronomy

May. 27, 2015 Rise Set
Actual Time
Civil Twilight
Nautical Twilight
Astronomical Twilight
Moon
Length of Visible Light
Length of Day
Tomorrow will be .
, % of the Moon is Illuminated

Today's Extremes

State Highs State Lows

Community

WunderPhotos

Upload Photos

1,824,805 photos uploaded!

WunderBlogs® & News

Nearby

Air Quality

  Air Quality AQ Index Pollutant
Not available.

Snow Depth

Station Depth Elevation

Earthquake Activity

City Distance Mag. Time & Date
Minimum magnitude displayed is 2.5.

Coastal Water Temperatures

Place Temperature

Stations

Nearby Weather Stations

Station Location Temp. Windchill Dew Point Humidity Wind Precip. Elev Updated Type